Time;durP1;ratioP1;P1;durP2;ratioP2;P2;SDS_P1;SDS_P2;PMS_P1;PMS_P2;Temp;Humidity;BMP_temperature;BMP_pressure;BME280_temperature;BME280_humidity;BME280_pressure;Samples;Min_cycle;Max_cycle;Signal;HPM_P1;HPM_P2
2022/07/03 00:01:57;;;;;;;0.22;0.20;;;24.10;49.00;;;;;;6272252;28;20496;-44
2022/07/03 00:04:58;;;;;;;0.32;0.13;;;24.10;49.00;;;;;;6293417;28;20166;-44
2022/07/03 00:08:00;;;;;;;0.32;0.20;;;24.10;49.10;;;;;;6296026;28;20129;-44
2022/07/03 00:11:09;;;;;;;0.20;0.10;;;24.10;49.00;;;;;;6290975;28;20071;-44
2022/07/03 00:14:10;;;;;;;0.10;0.10;;;24.10;49.10;;;;;;6286773;28;20101;-47
2022/07/03 00:17:20;;;;;;;0.10;0.10;;;24.10;49.10;;;;;;6291457;28;20042;-46
2022/07/03 00:20:31;;;;;;;0.10;0.10;;;24.00;49.00;;;;;;6285837;28;20141;-46
2022/07/03 00:23:40;;;;;;;0.10;0.10;;;24.00;49.00;;;;;;6289896;28;20039;-46
2022/07/03 00:26:44;;;;;;;0.30;0.10;;;24.10;49.10;;;;;;6286460;28;20058;-43
2022/07/03 00:29:49;;;;;;;0.00;0.00;;;24.00;49.00;;;;;;6291211;28;20040;-46
2022/07/03 00:32:53;;;;;;;0.03;0.03;;;24.10;49.10;;;;;;6290287;28;20803;-43
2022/07/03 00:35:55;;;;;;;0.13;0.10;;;24.10;49.10;;;;;;6290266;28;20158;-45
2022/07/03 00:38:57;;;;;;;0.20;0.20;;;24.10;49.10;;;;;;6272976;28;20094;-44
2022/07/03 00:42:08;;;;;;;0.38;0.20;;;24.00;49.00;;;;;;6286629;28;20084;-44
2022/07/03 00:45:12;;;;;;;0.10;0.10;;;24.00;49.10;;;;;;6270558;28;20035;-42
2022/07/03 00:48:22;;;;;;;0.28;0.10;;;24.00;49.10;;;;;;6285787;28;20883;-43
2022/07/03 00:51:33;;;;;;;0.22;0.17;;;24.00;49.10;;;;;;6286653;28;20039;-45
2022/07/03 00:54:35;;;;;;;0.00;0.00;;;24.00;49.10;;;;;;6268735;28;20036;-46
2022/07/03 00:57:44;;;;;;;0.28;0.10;;;24.00;49.10;;;;;;6290623;28;20836;-45
2022/07/03 01:00:47;;;;;;;0.00;0.00;;;24.10;49.10;;;;;;6286493;28;20477;-45
2022/07/03 01:04:03;;;;;;;0.60;0.20;;;24.00;49.10;;;;;;6280111;28;20761;-44
2022/07/03 01:07:07;;;;;;;0.35;0.10;;;24.00;49.10;;;;;;6282401;28;20062;-45
2022/07/03 01:10:16;;;;;;;0.20;0.10;;;24.10;49.10;;;;;;6246027;28;20218;-44
2022/07/03 01:13:37;;;;;;;0.63;0.10;;;24.10;49.10;;;;;;6274771;28;20067;-44
2022/07/03 01:16:47;;;;;;;0.40;0.20;;;24.00;49.10;;;;;;6282200;28;20087;-45
2022/07/03 01:20:02;;;;;;;0.10;0.10;;;24.00;49.10;;;;;;6280776;28;20056;-47
2022/07/03 01:23:24;;;;;;;0.20;0.10;;;24.00;49.20;;;;;;6279503;28;20451;-45
2022/07/03 01:26:30;;;;;;;0.10;0.10;;;24.00;49.20;;;;;;6278569;28;20407;-47
2022/07/03 01:29:38;;;;;;;0.20;0.13;;;24.00;49.20;;;;;;6275971;28;20933;-46
2022/07/03 01:32:43;;;;;;;0.22;0.10;;;23.90;49.10;;;;;;6254001;28;20650;-46
2022/07/03 01:35:56;;;;;;;0.10;0.10;;;23.90;49.20;;;;;;6261069;28;20410;-46
2022/07/03 01:39:01;;;;;;;0.15;0.10;;;23.90;49.20;;;;;;6253612;28;20146;-41
2022/07/03 01:42:05;;;;;;;0.10;0.10;;;23.80;49.20;;;;;;6282024;28;20272;-46
2022/07/03 01:45:19;;;;;;;0.13;0.10;;;23.80;49.20;;;;;;6281835;28;20337;-44
2022/07/03 01:48:23;;;;;;;0.20;0.20;;;23.90;49.20;;;;;;6278948;28;20147;-46
2022/07/03 01:51:35;;;;;;;0.10;0.10;;;23.70;49.10;;;;;;6282478;28;20376;-44
2022/07/03 01:54:47;;;;;;;0.10;0.10;;;23.90;49.20;;;;;;6280366;28;20079;-42
2022/07/03 01:57:49;;;;;;;;;;;23.80;49.20;;;;;;6266261;28;20048;-45
2022/07/03 02:01:01;;;;;;;0.20;0.10;;;23.60;49.10;;;;;;6280170;28;19931;-43
2022/07/03 02:04:09;;;;;;;0.10;0.10;;;23.80;49.20;;;;;;6278869;28;20079;-43
2022/07/03 02:07:19;;;;;;;0.28;0.10;;;23.70;49.10;;;;;;6284518;28;20080;-44
2022/07/03 02:10:29;;;;;;;0.38;0.10;;;23.80;49.20;;;;;;6283174;28;20436;-44
2022/07/03 02:13:37;;;;;;;0.20;0.20;;;23.70;49.10;;;;;;6264403;28;20125;-45
2022/07/03 02:16:54;;;;;;;0.10;0.10;;;23.80;49.20;;;;;;6267256;28;20496;-46
2022/07/03 02:20:00;;;;;;;0.10;0.10;;;23.80;49.20;;;;;;6258440;28;20048;-48
2022/07/03 02:23:11;;;;;;;0.20;0.17;;;23.80;49.20;;;;;;6274354;28;20075;-43
2022/07/03 02:26:25;;;;;;;0.10;0.10;;;23.70;49.20;;;;;;6278903;28;20326;-45
2022/07/03 02:29:33;;;;;;;0.13;0.13;;;23.70;49.10;;;;;;6266147;28;20402;-44
2022/07/03 02:32:38;;;;;;;0.20;0.20;;;23.70;49.80;;;;;;6263863;28;20082;-41
2022/07/03 02:35:41;;;;;;;0.25;0.20;;;23.70;49.10;;;;;;6261523;28;20032;-42
2022/07/03 02:38:45;;;;;;;0.20;0.10;;;23.50;49.00;;;;;;6280770;28;20525;-43
2022/07/03 02:41:53;;;;;;;0.10;0.10;;;23.70;49.10;;;;;;6280723;28;20146;-45
2022/07/03 02:44:59;;;;;;;0.20;0.13;;;23.70;49.00;;;;;;6282366;28;20137;-41
2022/07/03 02:48:23;;;;;;;0.15;0.10;;;23.70;49.00;;;;;;6278322;28;20264;-43
2022/07/03 02:51:32;;;;;;;0.35;0.10;;;23.60;48.90;;;;;;6251054;28;20346;-45
2022/07/03 02:54:45;;;;;;;0.20;0.20;;;23.70;48.90;;;;;;6254175;28;20414;-43
2022/07/03 02:58:11;;;;;;;0.20;0.10;;;23.70;48.90;;;;;;6280954;28;20813;-46
2022/07/03 03:01:24;;;;;;;0.43;0.20;;;23.70;48.90;;;;;;6275756;28;20462;-43
2022/07/03 03:04:30;;;;;;;0.10;0.10;;;23.70;48.80;;;;;;6278135;28;20990;-43
2022/07/03 03:07:35;;;;;;;0.00;0.00;;;23.70;48.80;;;;;;6279705;28;20212;-42
2022/07/03 03:10:38;;;;;;;0.20;0.20;;;23.60;48.70;;;;;;6281039;28;20316;-44
2022/07/03 03:13:41;;;;;;;0.43;0.10;;;23.70;48.70;;;;;;6262691;28;20048;-44
2022/07/03 03:16:47;;;;;;;0.10;0.10;;;23.60;48.60;;;;;;6284592;28;20094;-44
2022/07/03 03:19:56;;;;;;;0.50;0.20;;;23.70;48.70;;;;;;6263444;28;20113;-43
2022/07/03 03:23:11;;;;;;;0.47;0.10;;;23.70;48.60;;;;;;6279969;28;20036;-47
2022/07/03 03:26:21;;;;;;;0.10;0.10;;;23.70;48.50;;;;;;6280729;28;20410;-44
2022/07/03 03:29:31;;;;;;;0.17;0.17;;;23.60;48.50;;;;;;6283493;28;20416;-43
2022/07/03 03:32:35;;;;;;;0.20;0.15;;;23.70;48.50;;;;;;6283227;28;20702;-46
2022/07/03 03:35:38;;;;;;;0.15;0.15;;;23.70;48.50;;;;;;6267731;28;20043;-42
2022/07/03 03:38:41;;;;;;;0.10;0.00;;;23.70;48.40;;;;;;6284567;28;20114;-44
2022/07/03 03:41:42;;;;;;;0.28;0.20;;;23.70;48.40;;;;;;6282752;28;20038;-46
2022/07/03 03:44:44;;;;;;;0.17;0.10;;;24.60;48.90;;;;;;6265680;28;20291;-43
2022/07/03 03:47:46;;;;;;;0.38;0.15;;;23.70;48.40;;;;;;6283341;28;20052;-43
2022/07/03 03:50:55;;;;;;;0.10;0.10;;;23.70;48.30;;;;;;6279400;28;20947;-46
2022/07/03 03:53:57;;;;;;;0.20;0.20;;;23.50;48.20;;;;;;6263090;28;20408;-45
2022/07/03 03:57:18;;;;;;;0.20;0.20;;;23.50;48.10;;;;;;6285745;28;20385;-45
2022/07/03 04:00:27;;;;;;;0.28;0.10;;;23.70;48.20;;;;;;6285931;28;20496;-44
2022/07/03 04:03:31;;;;;;;0.22;0.10;;;23.60;48.10;;;;;;6283746;28;20272;-45
2022/07/03 04:06:32;;;;;;;0.13;0.10;;;23.60;48.10;;;;;;6258908;28;20162;-42
2022/07/03 04:09:34;;;;;;;0.40;0.22;;;23.60;48.10;;;;;;6286399;28;20120;-45
2022/07/03 04:12:36;;;;;;;0.45;0.35;;;23.70;48.10;;;;;;6279726;28;20035;-46
2022/07/03 04:15:37;;;;;;;0.15;0.10;;;23.40;48.00;;;;;;6279648;28;20076;-42
2022/07/03 04:18:39;;;;;;;0.10;0.10;;;23.60;48.00;;;;;;6281176;28;20586;-41
2022/07/03 04:21:51;;;;;;;0.17;0.15;;;23.70;48.10;;;;;;6277981;28;20302;-44
2022/07/03 04:24:53;;;;;;;0.10;0.10;;;23.60;48.00;;;;;;6260935;28;20168;-45
2022/07/03 04:28:03;;;;;;;0.20;0.10;;;23.60;48.00;;;;;;6281379;28;20186;-44
2022/07/03 04:31:30;;;;;;;0.25;0.20;;;23.60;48.00;;;;;;6276513;28;20269;-44
2022/07/03 04:34:32;;;;;;;0.13;0.03;;;23.80;48.10;;;;;;6277790;28;20036;-43
2022/07/03 04:37:33;;;;;;;0.40;0.10;;;23.50;47.90;;;;;;6277073;28;20043;-43
2022/07/03 04:40:35;;;;;;;0.57;0.20;;;23.60;48.00;;;;;;6278909;28;20097;-45
2022/07/03 04:43:36;;;;;;;0.25;0.20;;;23.60;47.90;;;;;;6276726;28;20050;-44
2022/07/03 04:46:38;;;;;;;0.10;0.10;;;23.60;48.20;;;;;;6283454;28;20057;-44
2022/07/03 04:49:40;;;;;;;0.10;0.10;;;23.50;47.90;;;;;;6280209;28;20039;-44
2022/07/03 04:52:48;;;;;;;0.52;0.20;;;23.60;47.90;;;;;;6255646;28;20772;-45
2022/07/03 04:55:50;;;;;;;0.10;0.10;;;23.60;47.90;;;;;;6277785;28;20540;-43
2022/07/03 04:59:00;;;;;;;0.30;0.20;;;23.60;47.90;;;;;;6256606;28;20557;-45
2022/07/03 05:02:10;;;;;;;0.10;0.10;;;23.50;47.80;;;;;;6259831;28;20082;-41
2022/07/03 05:05:12;;;;;;;0.30;0.10;;;23.50;47.80;;;;;;6278271;28;20074;-45
2022/07/03 05:08:14;;;;;;;0.10;0.10;;;23.50;47.80;;;;;;6280637;28;20067;-45
2022/07/03 05:11:15;;;;;;;0.20;0.15;;;23.60;47.80;;;;;;6280514;28;20475;-43
2022/07/03 05:14:17;;;;;;;0.22;0.10;;;23.50;47.80;;;;;;6277503;28;20691;-41
2022/07/03 05:17:19;;;;;;;0.15;0.10;;;23.60;47.80;;;;;;6279632;28;20165;-42
2022/07/03 05:20:24;;;;;;;0.20;0.10;;;23.50;47.80;;;;;;6275940;28;20085;-41
2022/07/03 05:23:34;;;;;;;0.20;0.20;;;23.50;47.80;;;;;;6274157;28;20151;-41
2022/07/03 05:26:35;;;;;;;0.20;0.20;;;23.50;47.80;;;;;;6274469;28;20815;-45
2022/07/03 05:29:45;;;;;;;0.10;0.10;;;23.50;47.80;;;;;;6278022;28;20876;-42
2022/07/03 05:32:55;;;;;;;0.10;0.10;;;23.60;47.80;;;;;;6276339;28;20040;-42
2022/07/03 05:35:57;;;;;;;0.17;0.10;;;23.50;47.70;;;;;;6281587;28;20344;-42
2022/07/03 05:42:15;;;;;;;0.10;0.10;;;23.50;47.70;;;;;;6250755;28;21147;-44
2022/07/03 05:45:16;;;;;;;0.20;0.10;;;23.50;47.70;;;;;;6276054;28;20164;-43
2022/07/03 05:48:18;;;;;;;0.13;0.10;;;23.50;47.70;;;;;;6278883;28;20078;-43
2022/07/03 05:51:20;;;;;;;0.50;0.10;;;23.40;47.70;;;;;;6278385;28;20180;-46
2022/07/03 05:54:30;;;;;;;0.57;0.13;;;23.50;47.70;;;;;;6276881;28;20246;-41
2022/07/03 05:57:31;;;;;;;0.20;0.20;;;23.40;47.70;;;;;;6273194;28;20446;-44
2022/07/03 06:00:43;;;;;;;0.13;0.10;;;23.40;47.70;;;;;;6276932;28;20182;-43
2022/07/03 06:06:54;;;;;;;0.10;0.05;;;23.50;47.80;;;;;;6275048;28;20040;-43
2022/07/03 06:09:56;;;;;;;0.85;0.20;;;23.50;48.40;;;;;;6280588;28;20035;-43
2022/07/03 06:12:57;;;;;;;0.10;0.10;;;23.50;47.80;;;;;;6274800;28;20422;-45
2022/07/03 06:15:59;;;;;;;0.73;0.17;;;23.60;47.80;;;;;;6278626;28;20366;-42
2022/07/03 06:19:00;;;;;;;0.20;0.13;;;23.50;47.80;;;;;;6275195;28;20600;-46
2022/07/03 06:22:02;;;;;;;0.22;0.10;;;23.50;47.80;;;;;;6274997;28;20373;-42
2022/07/03 06:25:12;;;;;;;0.30;0.20;;;23.40;47.70;;;;;;6275234;28;20039;-43
2022/07/03 06:28:14;;;;;;;0.35;0.20;;;23.50;47.80;;;;;;6277385;28;20444;-44
2022/07/03 06:31:23;;;;;;;0.35;0.20;;;23.50;47.80;;;;;;6271801;28;20150;-46
2022/07/03 06:34:32;;;;;;;0.20;0.13;;;23.60;47.90;;;;;;6275702;28;20043;-41
2022/07/03 06:37:34;;;;;;;0.10;0.10;;;23.40;47.70;;;;;;6273925;27;20159;-42
2022/07/03 06:40:36;;;;;;;0.25;0.17;;;23.40;47.80;;;;;;6276975;28;20554;-44
2022/07/03 06:43:38;;;;;;;0.75;0.20;;;23.50;47.90;;;;;;6281773;28;20201;-45
2022/07/03 06:46:39;;;;;;;0.32;0.10;;;23.60;47.90;;;;;;6275730;28;20320;-43
2022/07/03 06:49:43;;;;;;;1.10;0.10;;;23.60;47.90;;;;;;6275844;28;20476;-44
2022/07/03 06:52:45;;;;;;;0.20;0.10;;;23.50;47.80;;;;;;6275009;28;20043;-43
2022/07/03 06:55:55;;;;;;;0.20;0.10;;;23.50;47.80;;;;;;6276530;28;20040;-44
2022/07/03 06:58:57;;;;;;;0.17;0.10;;;23.60;47.90;;;;;;6271919;28;20174;-43
2022/07/03 07:02:07;;;;;;;0.20;0.10;;;23.50;47.80;;;;;;6253371;28;20076;-42
2022/07/03 07:05:17;;;;;;;0.20;0.10;;;23.60;47.80;;;;;;6274439;28;20109;-48
2022/07/03 07:08:19;;;;;;;0.20;0.10;;;23.60;47.80;;;;;;6268235;28;20080;-46
2022/07/03 07:11:21;;;;;;;0.10;0.10;;;23.60;47.80;;;;;;6271689;28;20035;-44
2022/07/03 07:14:22;;;;;;;0.20;0.20;;;23.60;47.80;;;;;;6271693;28;20341;-42
2022/07/03 07:17:24;;;;;;;0.28;0.20;;;23.60;47.80;;;;;;6271152;28;20253;-44
2022/07/03 07:20:25;;;;;;;0.30;0.10;;;23.60;47.80;;;;;;6277324;28;20294;-43
2022/07/03 07:23:27;;;;;;;0.10;0.10;;;23.60;47.70;;;;;;6269554;28;20673;-42
2022/07/03 07:26:37;;;;;;;0.20;0.20;;;23.60;47.70;;;;;;6267724;28;20052;-42
2022/07/03 07:29:39;;;;;;;0.10;0.10;;;23.70;47.80;;;;;;6273748;28;20059;-42
2022/07/03 07:32:49;;;;;;;0.35;0.20;;;23.70;47.70;;;;;;6274004;28;20138;-45
2022/07/03 07:36:04;;;;;;;0.10;0.10;;;23.60;47.70;;;;;;6273940;28;20044;-41
2022/07/03 07:39:06;;;;;;;0.10;0.10;;;23.70;47.70;;;;;;6269800;28;20484;-43
2022/07/03 07:42:08;;;;;;;0.10;0.10;;;23.60;47.60;;;;;;6270872;28;20031;-41
2022/07/03 07:45:10;;;;;;;0.00;0.00;;;23.70;47.70;;;;;;6270930;28;20140;-45
2022/07/03 07:48:11;;;;;;;0.10;0.10;;;23.70;47.70;;;;;;6271195;28;20075;-46
2022/07/03 07:51:12;;;;;;;0.10;0.10;;;23.60;47.50;;;;;;6273802;28;20135;-45
2022/07/03 07:54:15;;;;;;;0.17;0.10;;;23.70;47.60;;;;;;6274939;28;20233;-45
2022/07/03 07:57:24;;;;;;;0.32;0.10;;;23.80;47.70;;;;;;6275161;28;20518;-45
2022/07/03 08:00:26;;;;;;;0.08;0.00;;;23.70;47.60;;;;;;6267273;28;20415;-41
2022/07/03 08:06:57;;;;;;;0.25;0.10;;;23.80;47.60;;;;;;6275495;28;20285;-42
2022/07/03 08:10:00;;;;;;;0.10;0.10;;;23.80;47.60;;;;;;6259396;28;20051;-45
2022/07/03 08:13:01;;;;;;;0.20;0.20;;;23.80;47.50;;;;;;6277196;28;20058;-42
2022/07/03 08:16:03;;;;;;;0.35;0.10;;;23.90;47.50;;;;;;6276109;28;20123;-43
2022/07/03 08:19:05;;;;;;;0.00;0.00;;;23.60;47.40;;;;;;6252304;28;20039;-43
2022/07/03 08:22:06;;;;;;;0.40;0.10;;;23.70;47.40;;;;;;6275267;28;20090;-43
2022/07/03 08:25:08;;;;;;;0.50;0.13;;;23.70;47.40;;;;;;6274398;28;20712;-41
2022/07/03 08:28:18;;;;;;;0.30;0.10;;;23.90;47.40;;;;;;6270648;28;20380;-45
2022/07/03 08:31:20;;;;;;;0.47;0.20;;;23.70;47.30;;;;;;6272996;28;20161;-45
2022/07/03 08:34:29;;;;;;;0.10;0.10;;;23.70;47.30;;;;;;6271560;28;20247;-42
2022/07/03 08:37:40;;;;;;;0.40;0.10;;;23.80;47.30;;;;;;6275286;28;20032;-46
2022/07/03 08:40:45;;;;;;;0.20;0.13;;;23.80;47.30;;;;;;6278282;28;20541;-44
2022/07/03 08:43:50;;;;;;;0.40;0.20;;;23.80;47.20;;;;;;6271856;28;20093;-44
2022/07/03 08:46:52;;;;;;;0.15;0.10;;;23.80;47.30;;;;;;6257484;28;20577;-45
2022/07/03 08:49:54;;;;;;;0.10;0.10;;;23.90;47.30;;;;;;6273149;28;20227;-45
2022/07/03 08:52:56;;;;;;;0.10;0.10;;;23.90;47.20;;;;;;6271289;28;20408;-48
2022/07/03 08:56:00;;;;;;;0.05;0.05;;;23.80;47.20;;;;;;6272986;28;20047;-41
2022/07/03 08:59:10;;;;;;;0.22;0.15;;;23.90;47.20;;;;;;6272723;28;20118;-44
2022/07/03 09:02:13;;;;;;;0.10;0.10;;;23.80;47.10;;;;;;6272077;28;20400;-45
2022/07/03 09:05:23;;;;;;;0.30;0.10;;;23.80;47.00;;;;;;6271966;28;20316;-45
2022/07/03 09:08:34;;;;;;;0.43;0.00;;;23.80;47.00;;;;;;6271881;28;21338;-43
2022/07/03 09:11:37;;;;;;;;;;;23.90;47.00;;;;;;6275991;28;20275;-43
2022/07/03 09:14:39;;;;;;;0.10;0.10;;;23.90;46.90;;;;;;6272623;28;20333;-43
2022/07/03 09:17:55;;;;;;;0.20;0.10;;;23.80;46.80;;;;;;6273636;28;20039;-46
2022/07/03 09:21:03;;;;;;;0.17;0.17;;;23.90;46.80;;;;;;6253945;28;20379;-43
2022/07/03 09:24:06;;;;;;;0.45;0.20;;;23.90;46.70;;;;;;6273308;28;20120;-42
2022/07/03 09:27:15;;;;;;;0.32;0.10;;;23.90;46.60;;;;;;6259175;28;20354;-41
2022/07/03 09:30:26;;;;;;;0.65;0.10;;;24.00;46.50;;;;;;6275372;28;20314;-44
2022/07/03 09:33:28;;;;;;;0.10;0.10;;;23.90;46.40;;;;;;6275716;28;20352;-47
2022/07/03 09:36:48;;;;;;;0.20;0.20;;;24.00;46.40;;;;;;6270359;28;20739;-42
2022/07/03 09:40:06;;;;;;;0.10;0.10;;;24.00;46.40;;;;;;6273638;28;20130;-44
2022/07/03 09:43:08;;;;;;;0.10;0.10;;;23.90;46.20;;;;;;6273195;28;20074;-45
2022/07/03 09:46:11;;;;;;;0.63;0.10;;;23.90;46.20;;;;;;6276916;28;20055;-41
2022/07/03 09:49:12;;;;;;;0.10;0.10;;;24.00;46.20;;;;;;6255301;28;20158;-45
2022/07/03 09:52:33;;;;;;;0.50;0.20;;;24.00;46.10;;;;;;6273420;28;20609;-42
2022/07/03 09:55:35;;;;;;;0.20;0.10;;;24.00;46.00;;;;;;6239905;28;20105;-48
2022/07/03 09:58:38;;;;;;;0.00;0.00;;;24.00;46.00;;;;;;6273818;28;20162;-44
2022/07/03 10:02:08;;;;;;;0.20;0.00;;;24.20;46.10;;;;;;6283955;28;20053;-44
2022/07/03 10:05:12;;;;;;;0.20;0.10;;;24.00;45.80;;;;;;6275189;28;20043;-42
2022/07/03 10:08:15;;;;;;;0.10;0.03;;;24.00;45.80;;;;;;6270749;28;20063;-43
2022/07/03 10:11:25;;;;;;;0.20;0.10;;;24.10;45.70;;;;;;6256951;28;20296;-45
2022/07/03 10:14:29;;;;;;;0.20;0.10;;;24.00;45.60;;;;;;6270539;28;20071;-47
2022/07/03 10:17:32;;;;;;;0.13;0.10;;;24.00;45.60;;;;;;6273577;28;20488;-44
2022/07/03 10:20:35;;;;;;;0.20;0.10;;;24.10;45.60;;;;;;6275925;28;20118;-48
2022/07/03 10:23:38;;;;;;;0.10;0.10;;;24.20;45.50;;;;;;6276878;28;20365;-41
2022/07/03 10:26:46;;;;;;;0.15;0.10;;;24.10;45.40;;;;;;6275439;28;20048;-44
2022/07/03 10:29:49;;;;;;;0.15;0.15;;;24.10;45.30;;;;;;6278603;28;20079;-43
2022/07/03 10:33:05;;;;;;;0.10;0.10;;;24.10;45.30;;;;;;6274764;28;20142;-45
2022/07/03 10:36:07;;;;;;;0.10;0.10;;;24.20;45.20;;;;;;6276883;28;20087;-43
2022/07/03 10:39:19;;;;;;;0.10;0.10;;;24.20;45.10;;;;;;6277771;28;21010;-45
2022/07/03 10:46:11;;;;;;;0.10;0.10;;;24.20;45.10;;;;;;6256367;28;19970;-42
2022/07/03 10:49:13;;;;;;;0.20;0.10;;;24.30;45.10;;;;;;6263614;28;20299;-43
2022/07/03 10:52:17;;;;;;;0.05;0.05;;;24.30;45.00;;;;;;6279957;28;20068;-45
2022/07/03 10:55:19;;;;;;;0.10;0.10;;;24.20;44.90;;;;;;6277887;28;20610;-46
2022/07/03 10:58:20;;;;;;;0.15;0.10;;;24.20;44.90;;;;;;6264999;28;20108;-46
2022/07/03 11:01:26;;;;;;;0.10;0.10;;;24.20;44.80;;;;;;6277956;28;20164;-46
2022/07/03 11:05:06;;;;;;;0.10;0.10;;;24.30;44.80;;;;;;6273101;28;20044;-42
2022/07/03 11:08:14;;;;;;;0.00;0.00;;;24.40;44.70;;;;;;6259313;28;20162;-42
2022/07/03 11:15:24;;;;;;;0.00;0.00;;;24.40;44.50;;;;;;6268695;28;20907;-43
2022/07/03 11:18:37;;;;;;;0.00;0.00;;;24.40;44.40;;;;;;6247260;28;20062;-42
2022/07/03 11:21:43;;;;;;;0.10;0.10;;;24.40;44.30;;;;;;6239575;28;20178;-45
2022/07/03 11:24:45;;;;;;;0.10;0.00;;;24.50;44.30;;;;;;6274604;28;20609;-42
2022/07/03 11:27:47;;;;;;;0.03;0.03;;;24.50;44.10;;;;;;6279035;28;20703;-44
2022/07/03 11:31:18;;;;;;;0.10;0.10;;;24.50;44.00;;;;;;6278860;28;20324;-43
2022/07/03 11:34:21;;;;;;;0.17;0.10;;;24.50;43.70;;;;;;6261920;28;20437;-44
2022/07/03 11:37:40;;;;;;;0.10;0.10;;;24.60;43.70;;;;;;6254181;28;20302;-43
2022/07/03 11:40:43;;;;;;;0.22;0.00;;;24.50;43.40;;;;;;6275328;28;20182;-44
2022/07/03 11:43:47;;;;;;;0.10;0.10;;;24.60;43.40;;;;;;6257305;28;20213;-42
2022/07/03 11:46:51;;;;;;;0.20;0.10;;;24.40;43.10;;;;;;6254811;28;20414;-46
2022/07/03 11:53:26;;;;;;;0.25;0.10;;;24.60;42.90;;;;;;6275152;28;20162;-43
2022/07/03 11:56:28;;;;;;;0.00;0.00;;;24.70;43.00;;;;;;6263060;28;20043;-44
2022/07/03 11:59:30;;;;;;;0.10;0.10;;;24.70;43.00;;;;;;6271473;28;20961;-41
2022/07/03 12:02:31;;;;;;;0.35;0.10;;;24.60;43.00;;;;;;6271557;28;20040;-42
2022/07/03 12:05:34;;;;;;;0.10;0.10;;;24.60;43.00;;;;;;6258761;28;20314;-49
2022/07/03 12:08:51;;;;;;;0.00;0.00;;;24.60;43.10;;;;;;6275141;28;20110;-43
2022/07/03 12:11:55;;;;;;;0.25;0.10;;;24.50;43.20;;;;;;6275295;28;20113;-43
2022/07/03 12:14:57;;;;;;;0.10;0.10;;;24.50;43.20;;;;;;6250252;28;20040;-45
2022/07/03 12:17:58;;;;;;;0.20;0.10;;;24.50;43.20;;;;;;6273811;28;20670;-43
2022/07/03 12:21:13;;;;;;;0.17;0.10;;;24.60;43.20;;;;;;6272973;28;20083;-43
2022/07/03 12:24:14;;;;;;;0.10;0.10;;;24.60;43.10;;;;;;6271976;28;20107;-44
2022/07/03 12:27:16;;;;;;;0.10;0.10;;;24.60;43.00;;;;;;6272137;28;20653;-44
2022/07/03 12:30:20;;;;;;;0.10;0.10;;;24.50;42.90;;;;;;6271123;28;20066;-46
2022/07/03 12:33:30;;;;;;;0.20;0.20;;;24.60;42.90;;;;;;6253394;28;20276;-46
2022/07/03 12:36:32;;;;;;;0.10;0.10;;;24.50;42.80;;;;;;6271659;28;20903;-42
2022/07/03 12:39:50;;;;;;;0.10;0.10;;;24.40;42.80;;;;;;6271694;28;20528;-44
2022/07/03 12:42:53;;;;;;;0.43;0.10;;;24.50;42.90;;;;;;6274063;28;20150;-42
2022/07/03 12:45:55;;;;;;;0.10;0.10;;;24.60;43.00;;;;;;6260857;28;20574;-44
2022/07/03 12:48:57;;;;;;;0.10;0.10;;;24.50;42.90;;;;;;6266373;28;20270;-42
2022/07/03 12:52:15;;;;;;;0.10;0.10;;;24.40;42.80;;;;;;6237558;28;20095;-45
2022/07/03 12:55:23;;;;;;;0.20;0.20;;;24.30;42.70;;;;;;6275260;28;20947;-46
2022/07/03 13:01:39;;;;;;;0.50;0.15;;;24.50;42.70;;;;;;6272545;28;20843;-44
2022/07/03 13:04:41;;;;;;;0.10;0.10;;;24.60;42.80;;;;;;6272614;28;20144;-45
2022/07/03 13:07:45;;;;;;;0.20;0.10;;;24.50;42.70;;;;;;6274961;28;20044;-45
2022/07/03 13:10:57;;;;;;;0.10;0.10;;;24.30;42.50;;;;;;6250554;28;20861;-44
2022/07/03 13:14:05;;;;;;;0.10;0.10;;;24.40;42.60;;;;;;6252360;28;20158;-43
2022/07/03 13:17:06;;;;;;;0.60;0.28;;;24.40;42.50;;;;;;6255324;28;20428;-44
2022/07/03 13:20:08;;;;;;;0.10;0.10;;;24.50;42.60;;;;;;6273937;28;20168;-42
2022/07/03 13:23:26;;;;;;;0.10;0.10;;;24.60;42.60;;;;;;6270266;28;20039;-42
2022/07/03 13:26:28;;;;;;;0.00;0.00;;;24.30;42.50;;;;;;6249895;28;20074;-43
2022/07/03 13:29:29;;;;;;;0.10;0.10;;;24.30;42.60;;;;;;6264713;28;20043;-44
2022/07/03 13:32:31;;;;;;;0.10;0.10;;;24.30;42.50;;;;;;6261795;28;20048;-44
2022/07/03 13:35:33;;;;;;;0.30;0.10;;;24.30;42.60;;;;;;6265979;28;20464;-41
2022/07/03 13:38:35;;;;;;;0.15;0.10;;;24.40;42.60;;;;;;6259642;28;20047;-42
2022/07/03 13:41:45;;;;;;;0.17;0.10;;;24.30;42.60;;;;;;6253906;28;20028;-46
2022/07/03 13:44:47;;;;;;;0.10;0.10;;;24.40;42.80;;;;;;6252725;28;20075;-47
2022/07/03 13:47:48;;;;;;;0.10;0.10;;;24.40;42.90;;;;;;6254805;28;20347;-45
2022/07/03 13:50:50;;;;;;;0.30;0.10;;;24.30;43.00;;;;;;6249846;28;20047;-42
2022/07/03 13:54:00;;;;;;;0.10;0.10;;;24.20;43.00;;;;;;6250640;28;20194;-44
2022/07/03 13:57:02;;;;;;;0.30;0.20;;;24.30;43.10;;;;;;6248177;28;20143;-42
2022/07/03 14:00:13;;;;;;;0.00;0.00;;;24.30;43.10;;;;;;6229260;28;20379;-42
2022/07/03 14:03:15;;;;;;;0.07;0.00;;;24.50;43.30;;;;;;6253400;28;20436;-46
2022/07/03 14:06:17;;;;;;;0.05;0.05;;;24.30;43.20;;;;;;6258402;28;20333;-43
2022/07/03 14:09:19;;;;;;;0.10;0.10;;;24.30;43.20;;;;;;6259998;28;20919;-45
2022/07/03 14:12:28;;;;;;;0.17;0.10;;;24.30;43.30;;;;;;6255813;28;20495;-43
2022/07/03 14:15:30;;;;;;;0.05;0.05;;;24.20;43.20;;;;;;6263161;28;20482;-46
2022/07/03 14:18:40;;;;;;;0.20;0.10;;;24.30;43.30;;;;;;6266340;28;20160;-44
2022/07/03 14:21:41;;;;;;;0.03;0.00;;;24.30;43.40;;;;;;6270155;28;20174;-44
2022/07/03 14:24:50;;;;;;;0.10;0.10;;;24.30;43.50;;;;;;6269644;28;20067;-46
2022/07/03 14:34:24;;;;;;;0.10;0.10;;;24.30;43.80;;;;;;6254106;28;20614;-42
2022/07/03 14:37:34;;;;;;;0.20;0.10;;;24.30;43.80;;;;;;6253554;28;20170;-45
2022/07/03 14:40:36;;;;;;;0.10;0.10;;;24.30;44.00;;;;;;6267594;28;20036;-49
2022/07/03 14:43:46;;;;;;;0.30;0.10;;;24.30;44.00;;;;;;6261827;28;20447;-43
2022/07/03 14:46:47;;;;;;;0.13;0.10;;;24.30;44.20;;;;;;6265071;28;20044;-44
2022/07/03 14:49:49;;;;;;;0.20;0.10;;;24.30;44.30;;;;;;6268529;28;20691;-43
2022/07/03 14:52:50;;;;;;;0.20;0.10;;;24.30;44.50;;;;;;6261898;28;20036;-43
2022/07/03 14:56:00;;;;;;;0.10;0.10;;;24.30;44.60;;;;;;6259481;28;20129;-43
2022/07/03 14:59:07;;;;;;;0.10;0.10;;;24.30;44.70;;;;;;6257898;28;20118;-44
2022/07/03 15:02:19;;;;;;;0.17;0.17;;;24.30;44.80;;;;;;6258853;28;21076;-42
2022/07/03 15:05:22;;;;;;;0.10;0.10;;;24.20;44.80;;;;;;6260484;28;21805;-42
2022/07/03 15:08:42;;;;;;;0.00;0.00;;;24.20;44.80;;;;;;6264595;28;20048;-46
2022/07/03 15:15:15;;;;;;;0.13;0.10;;;24.30;45.20;;;;;;6269253;28;20170;-44
2022/07/03 15:18:19;;;;;;;0.00;0.00;;;24.30;45.20;;;;;;6254100;28;20389;-46
2022/07/03 15:21:22;;;;;;;0.17;0.17;;;24.30;45.30;;;;;;6265379;28;20303;-43
2022/07/03 15:24:27;;;;;;;0.28;0.17;;;24.40;45.40;;;;;;6266315;28;20032;-47
2022/07/03 15:27:35;;;;;;;0.45;0.20;;;24.30;45.30;;;;;;6263495;28;20108;-43
2022/07/03 15:30:38;;;;;;;0.22;0.10;;;24.30;45.30;;;;;;6254052;28;20159;-42
2022/07/03 15:33:39;;;;;;;0.15;0.10;;;24.30;45.30;;;;;;6253744;28;20044;-47
2022/07/03 15:36:45;;;;;;;0.10;0.10;;;24.30;45.30;;;;;;6259257;28;20913;-41
2022/07/03 15:40:06;;;;;;;0.20;0.20;;;24.30;45.20;;;;;;6235252;28;20207;-45
2022/07/03 15:43:24;;;;;;;0.10;0.10;;;24.40;45.30;;;;;;6241275;28;20063;-46
2022/07/03 15:46:43;;;;;;;0.20;0.10;;;24.20;45.10;;;;;;6259070;28;20043;-43
2022/07/03 15:49:47;;;;;;;0.28;0.20;;;24.20;45.00;;;;;;6265881;28;20622;-43
2022/07/03 15:52:50;;;;;;;0.10;0.10;;;24.20;44.90;;;;;;6271021;28;20615;-44
2022/07/03 15:55:56;;;;;;;0.15;0.03;;;24.30;44.90;;;;;;6260397;28;20051;-45
2022/07/03 15:59:09;;;;;;;0.25;0.10;;;24.30;44.90;;;;;;6246461;28;20496;-44
2022/07/03 16:02:17;;;;;;;0.10;0.10;;;24.20;44.70;;;;;;6257189;28;20150;-45
2022/07/03 16:05:25;;;;;;;0.47;0.20;;;24.30;44.70;;;;;;6273533;28;20176;-43
2022/07/03 16:08:28;;;;;;;0.10;0.10;;;24.30;44.60;;;;;;6253634;28;21057;-41
2022/07/03 16:11:38;;;;;;;0.10;0.10;;;24.40;44.50;;;;;;6267036;28;20160;-47
2022/07/03 16:14:40;;;;;;;0.20;0.10;;;24.40;44.50;;;;;;6259821;28;20751;-43
2022/07/03 16:17:53;;;;;;;0.10;0.10;;;24.40;44.50;;;;;;6254276;28;20048;-43
2022/07/03 16:20:55;;;;;;;0.73;0.10;;;24.40;44.50;;;;;;6252713;28;20048;-42
2022/07/03 16:23:59;;;;;;;0.10;0.10;;;24.50;44.50;;;;;;6254361;28;20047;-45
2022/07/03 16:27:12;;;;;;;0.10;0.10;;;24.50;44.90;;;;;;6229135;28;20238;-43
2022/07/03 16:30:22;;;;;;;0.13;0.10;;;24.40;44.70;;;;;;6249284;28;20692;-41
2022/07/03 16:33:28;;;;;;;0.10;0.10;;;24.40;44.60;;;;;;6252343;28;20527;-44
2022/07/03 16:36:35;;;;;;;0.10;0.10;;;24.50;44.80;;;;;;6211629;28;20560;-42
2022/07/03 16:39:39;;;;;;;0.00;0.00;;;24.40;44.60;;;;;;6252207;28;20472;-43
2022/07/03 16:42:51;;;;;;;0.30;0.15;;;24.40;44.50;;;;;;6250650;28;20136;-44
2022/07/03 16:45:55;;;;;;;0.47;0.10;;;24.60;44.60;;;;;;6219440;28;20156;-42